sensor_id;sensor_type;location;lat;lon;timestamp;temperature;humidity
65598;SHT31;52267;51.984;20.956;2024-01-06T00:02:23;-1.43;85.58
65598;SHT31;52267;51.984;20.956;2024-01-06T00:04:50;-1.46;85.82
65598;SHT31;52267;51.984;20.956;2024-01-06T00:07:17;-1.45;85.70
65598;SHT31;52267;51.984;20.956;2024-01-06T00:09:44;-1.44;85.61
65598;SHT31;52267;51.984;20.956;2024-01-06T00:12:11;-1.46;85.65
65598;SHT31;52267;51.984;20.956;2024-01-06T00:14:38;-1.45;85.64
65598;SHT31;52267;51.984;20.956;2024-01-06T00:17:08;-1.41;85.57
65598;SHT31;52267;51.984;20.956;2024-01-06T00:19:35;-1.41;85.59
65598;SHT31;52267;51.984;20.956;2024-01-06T00:22:02;-1.41;85.68
65598;SHT31;52267;51.984;20.956;2024-01-06T00:24:30;-1.39;85.63
65598;SHT31;52267;51.984;20.956;2024-01-06T00:26:57;-1.35;85.51
65598;SHT31;52267;51.984;20.956;2024-01-06T00:29:25;-1.33;85.45
65598;SHT31;52267;51.984;20.956;2024-01-06T00:31:52;-1.35;85.61
65598;SHT31;52267;51.984;20.956;2024-01-06T00:34:19;-1.35;85.56
65598;SHT31;52267;51.984;20.956;2024-01-06T00:36:46;-1.34;85.46
65598;SHT31;52267;51.984;20.956;2024-01-06T00:39:14;-1.35;85.44
65598;SHT31;52267;51.984;20.956;2024-01-06T00:41:41;-1.37;85.51
65598;SHT31;52267;51.984;20.956;2024-01-06T00:44:08;-1.34;85.48
65598;SHT31;52267;51.984;20.956;2024-01-06T00:46:35;-1.30;85.33
65598;SHT31;52267;51.984;20.956;2024-01-06T00:49:05;-1.31;85.46
65598;SHT31;52267;51.984;20.956;2024-01-06T00:51:32;-1.33;85.42
65598;SHT31;52267;51.984;20.956;2024-01-06T00:54:00;-1.33;85.36
65598;SHT31;52267;51.984;20.956;2024-01-06T00:56:27;-1.31;85.31
65598;SHT31;52267;51.984;20.956;2024-01-06T00:58:55;-1.29;85.30
65598;SHT31;52267;51.984;20.956;2024-01-06T01:01:22;-1.35;85.44
65598;SHT31;52267;51.984;20.956;2024-01-06T01:03:49;-1.40;85.48
65598;SHT31;52267;51.984;20.956;2024-01-06T01:06:16;-1.38;85.37
65598;SHT31;52267;51.984;20.956;2024-01-06T01:08:43;-1.40;85.59
65598;SHT31;52267;51.984;20.956;2024-01-06T01:11:10;-1.43;85.79
65598;SHT31;52267;51.984;20.956;2024-01-06T01:13:37;-1.41;85.68
65598;SHT31;52267;51.984;20.956;2024-01-06T01:16:04;-1.46;85.72
65598;SHT31;52267;51.984;20.956;2024-01-06T01:18:31;-1.46;85.63
65598;SHT31;52267;51.984;20.956;2024-01-06T01:20:58;-1.43;85.43
65598;SHT31;52267;51.984;20.956;2024-01-06T01:23:25;-1.40;85.23
65598;SHT31;52267;51.984;20.956;2024-01-06T01:25:53;-1.40;85.20
65598;SHT31;52267;51.984;20.956;2024-01-06T01:28:21;-1.38;85.18
65598;SHT31;52267;51.984;20.956;2024-01-06T01:30:48;-1.37;85.12
65598;SHT31;52267;51.984;20.956;2024-01-06T01:33:15;-1.41;85.16
65598;SHT31;52267;51.984;20.956;2024-01-06T01:35:42;-1.45;85.21
65598;SHT31;52267;51.984;20.956;2024-01-06T01:38:09;-1.48;85.42
65598;SHT31;52267;51.984;20.956;2024-01-06T01:40:36;-1.59;85.96
65598;SHT31;52267;51.984;20.956;2024-01-06T01:43:03;-1.62;85.89
65598;SHT31;52267;51.984;20.956;2024-01-06T01:45:30;-1.64;85.96
65598;SHT31;52267;51.984;20.956;2024-01-06T01:47:57;-1.60;85.72
65598;SHT31;52267;51.984;20.956;2024-01-06T01:50:24;-1.62;85.65
65598;SHT31;52267;51.984;20.956;2024-01-06T01:52:54;-1.64;85.66
65598;SHT31;52267;51.984;20.956;2024-01-06T01:55:21;-1.62;85.84
65598;SHT31;52267;51.984;20.956;2024-01-06T01:57:48;-1.61;85.89
65598;SHT31;52267;51.984;20.956;2024-01-06T02:00:16;-1.57;85.68
65598;SHT31;52267;51.984;20.956;2024-01-06T02:02:43;-1.54;85.66
65598;SHT31;52267;51.984;20.956;2024-01-06T02:05:10;-1.52;85.61
65598;SHT31;52267;51.984;20.956;2024-01-06T02:07:37;-1.50;85.62
65598;SHT31;52267;51.984;20.956;2024-01-06T02:10:04;-1.51;85.59
65598;SHT31;52267;51.984;20.956;2024-01-06T02:12:32;-1.49;85.47
65598;SHT31;52267;51.984;20.956;2024-01-06T02:14:59;-1.49;85.50
65598;SHT31;52267;51.984;20.956;2024-01-06T02:17:26;-1.50;85.48
65598;SHT31;52267;51.984;20.956;2024-01-06T02:19:53;-1.47;85.43
65598;SHT31;52267;51.984;20.956;2024-01-06T02:22:20;-1.47;85.42
65598;SHT31;52267;51.984;20.956;2024-01-06T02:24:47;-1.50;85.51
65598;SHT31;52267;51.984;20.956;2024-01-06T02:27:14;-1.57;85.79
65598;SHT31;52267;51.984;20.956;2024-01-06T02:29:41;-1.54;85.70
65598;SHT31;52267;51.984;20.956;2024-01-06T02:32:08;-1.60;85.90
65598;SHT31;52267;51.984;20.956;2024-01-06T02:34:37;-1.63;86.15
65598;SHT31;52267;51.984;20.956;2024-01-06T02:37:04;-1.68;86.45
65598;SHT31;52267;51.984;20.956;2024-01-06T02:39:31;-1.68;86.30
65598;SHT31;52267;51.984;20.956;2024-01-06T02:41:58;-1.63;86.02
65598;SHT31;52267;51.984;20.956;2024-01-06T02:44:26;-1.57;85.91
65598;SHT31;52267;51.984;20.956;2024-01-06T02:46:53;-1.56;85.89
65598;SHT31;52267;51.984;20.956;2024-01-06T02:49:20;-1.55;85.88
65598;SHT31;52267;51.984;20.956;2024-01-06T02:51:47;-1.59;85.80
65598;SHT31;52267;51.984;20.956;2024-01-06T02:54:14;-1.57;85.80
65598;SHT31;52267;51.984;20.956;2024-01-06T02:56:41;-1.58;85.77
65598;SHT31;52267;51.984;20.956;2024-01-06T02:59:08;-1.54;85.64
65598;SHT31;52267;51.984;20.956;2024-01-06T03:01:35;-1.59;85.93
65598;SHT31;52267;51.984;20.956;2024-01-06T03:04:03;-1.68;86.33
65598;SHT31;52267;51.984;20.956;2024-01-06T03:06:30;-1.76;86.81
65598;SHT31;52267;51.984;20.956;2024-01-06T03:08:57;-1.82;87.17
65598;SHT31;52267;51.984;20.956;2024-01-06T03:11:24;-1.84;87.15
65598;SHT31;52267;51.984;20.956;2024-01-06T03:13:51;-1.79;86.92
65598;SHT31;52267;51.984;20.956;2024-01-06T03:16:19;-1.76;86.74
65598;SHT31;52267;51.984;20.956;2024-01-06T03:18:46;-1.72;86.63
65598;SHT31;52267;51.984;20.956;2024-01-06T03:21:17;-1.72;86.93
65598;SHT31;52267;51.984;20.956;2024-01-06T03:23:45;-1.72;86.78
65598;SHT31;52267;51.984;20.956;2024-01-06T03:26:14;-1.72;86.71
65598;SHT31;52267;51.984;20.956;2024-01-06T03:28:41;-1.73;86.76
65598;SHT31;52267;51.984;20.956;2024-01-06T03:31:08;-1.77;87.01
65598;SHT31;52267;51.984;20.956;2024-01-06T03:33:35;-1.79;86.84
65598;SHT31;52267;51.984;20.956;2024-01-06T03:36:05;-1.79;86.77
65598;SHT31;52267;51.984;20.956;2024-01-06T03:38:33;-1.77;86.79
65598;SHT31;52267;51.984;20.956;2024-01-06T03:41:00;-1.79;86.98
65598;SHT31;52267;51.984;20.956;2024-01-06T03:43:27;-1.79;86.97
65598;SHT31;52267;51.984;20.956;2024-01-06T03:45:54;-1.85;87.17
65598;SHT31;52267;51.984;20.956;2024-01-06T03:48:23;-1.84;87.08
65598;SHT31;52267;51.984;20.956;2024-01-06T03:50:50;-1.87;87.11
65598;SHT31;52267;51.984;20.956;2024-01-06T03:53:17;-1.88;87.26
65598;SHT31;52267;51.984;20.956;2024-01-06T03:55:44;-1.85;87.09
65598;SHT31;52267;51.984;20.956;2024-01-06T03:58:11;-1.85;87.23
65598;SHT31;52267;51.984;20.956;2024-01-06T04:00:38;-1.90;87.44
65598;SHT31;52267;51.984;20.956;2024-01-06T04:03:05;-1.91;87.35
65598;SHT31;52267;51.984;20.956;2024-01-06T04:05:33;-1.91;87.36
65598;SHT31;52267;51.984;20.956;2024-01-06T04:08:00;-1.89;87.21
65598;SHT31;52267;51.984;20.956;2024-01-06T04:10:27;-1.89;87.10
65598;SHT31;52267;51.984;20.956;2024-01-06T04:12:55;-1.89;87.00
65598;SHT31;52267;51.984;20.956;2024-01-06T04:15:22;-1.88;87.10
65598;SHT31;52267;51.984;20.956;2024-01-06T04:17:49;-1.90;87.10
65598;SHT31;52267;51.984;20.956;2024-01-06T04:20:16;-1.86;87.01
65598;SHT31;52267;51.984;20.956;2024-01-06T04:22:43;-1.82;86.94
65598;SHT31;52267;51.984;20.956;2024-01-06T04:25:11;-1.86;87.21
65598;SHT31;52267;51.984;20.956;2024-01-06T04:27:38;-1.88;87.24
65598;SHT31;52267;51.984;20.956;2024-01-06T04:34:04;-1.78;86.99
65598;SHT31;52267;51.984;20.956;2024-01-06T04:36:31;-1.76;86.89
65598;SHT31;52267;51.984;20.956;2024-01-06T04:38:58;-1.81;87.10
65598;SHT31;52267;51.984;20.956;2024-01-06T04:41:25;-1.81;87.16
65598;SHT31;52267;51.984;20.956;2024-01-06T04:43:52;-1.77;87.08
65598;SHT31;52267;51.984;20.956;2024-01-06T04:46:19;-1.77;86.98
65598;SHT31;52267;51.984;20.956;2024-01-06T04:48:47;-1.81;87.15
65598;SHT31;52267;51.984;20.956;2024-01-06T04:51:14;-1.80;87.11
65598;SHT31;52267;51.984;20.956;2024-01-06T04:53:42;-1.79;87.11
65598;SHT31;52267;51.984;20.956;2024-01-06T04:56:09;-1.86;87.41
65598;SHT31;52267;51.984;20.956;2024-01-06T04:58:36;-1.91;87.64
65598;SHT31;52267;51.984;20.956;2024-01-06T05:01:03;-1.89;87.53
65598;SHT31;52267;51.984;20.956;2024-01-06T05:03:30;-1.87;87.43
65598;SHT31;52267;51.984;20.956;2024-01-06T05:05:57;-1.85;87.30
65598;SHT31;52267;51.984;20.956;2024-01-06T05:08:24;-1.85;87.14
65598;SHT31;52267;51.984;20.956;2024-01-06T05:10:51;-1.89;87.31
65598;SHT31;52267;51.984;20.956;2024-01-06T05:13:20;-1.86;87.26
65598;SHT31;52267;51.984;20.956;2024-01-06T05:15:47;-1.82;87.18
65598;SHT31;52267;51.984;20.956;2024-01-06T05:18:14;-1.78;87.09
65598;SHT31;52267;51.984;20.956;2024-01-06T05:20:41;-1.77;87.02
65598;SHT31;52267;51.984;20.956;2024-01-06T05:23:08;-1.76;86.96
65598;SHT31;52267;51.984;20.956;2024-01-06T05:25:35;-1.80;87.15
65598;SHT31;52267;51.984;20.956;2024-01-06T05:28:02;-1.82;87.29
65598;SHT31;52267;51.984;20.956;2024-01-06T05:30:30;-1.77;87.19
65598;SHT31;52267;51.984;20.956;2024-01-06T05:32:57;-1.74;87.09
65598;SHT31;52267;51.984;20.956;2024-01-06T05:35:24;-1.76;87.01
65598;SHT31;52267;51.984;20.956;2024-01-06T05:37:51;-1.77;87.04
65598;SHT31;52267;51.984;20.956;2024-01-06T05:40:22;-1.81;87.11
65598;SHT31;52267;51.984;20.956;2024-01-06T05:42:49;-1.77;86.98
65598;SHT31;52267;51.984;20.956;2024-01-06T05:45:18;-1.78;86.90
65598;SHT31;52267;51.984;20.956;2024-01-06T05:47:45;-1.77;86.83
65598;SHT31;52267;51.984;20.956;2024-01-06T05:50:14;-1.80;86.91
65598;SHT31;52267;51.984;20.956;2024-01-06T05:52:42;-1.79;86.94
65598;SHT31;52267;51.984;20.956;2024-01-06T05:55:10;-1.80;86.87
65598;SHT31;52267;51.984;20.956;2024-01-06T05:57:36;-1.78;86.90
65598;SHT31;52267;51.984;20.956;2024-01-06T06:00:04;-1.78;86.82
65598;SHT31;52267;51.984;20.956;2024-01-06T06:02:35;-1.75;86.77
65598;SHT31;52267;51.984;20.956;2024-01-06T06:05:02;-1.79;86.88
65598;SHT31;52267;51.984;20.956;2024-01-06T06:07:29;-1.84;87.01
65598;SHT31;52267;51.984;20.956;2024-01-06T06:09:56;-1.87;87.16
65598;SHT31;52267;51.984;20.956;2024-01-06T06:12:23;-1.91;87.43
65598;SHT31;52267;51.984;20.956;2024-01-06T06:14:51;-1.90;87.27
65598;SHT31;52267;51.984;20.956;2024-01-06T06:17:18;-1.90;87.20
65598;SHT31;52267;51.984;20.956;2024-01-06T06:19:45;-1.91;87.42
65598;SHT31;52267;51.984;20.956;2024-01-06T06:22:12;-1.88;87.30
65598;SHT31;52267;51.984;20.956;2024-01-06T06:24:39;-1.87;87.46
65598;SHT31;52267;51.984;20.956;2024-01-06T06:27:06;-1.87;87.46
65598;SHT31;52267;51.984;20.956;2024-01-06T06:29:33;-1.89;87.70
65598;SHT31;52267;51.984;20.956;2024-01-06T06:32:03;-1.90;87.72
65598;SHT31;52267;51.984;20.956;2024-01-06T06:34:30;-1.92;87.84
65598;SHT31;52267;51.984;20.956;2024-01-06T06:36:57;-1.93;87.98
65598;SHT31;52267;51.984;20.956;2024-01-06T06:39:25;-1.90;87.71
65598;SHT31;52267;51.984;20.956;2024-01-06T06:41:53;-1.87;87.63
65598;SHT31;52267;51.984;20.956;2024-01-06T06:44:20;-1.82;87.42
65598;SHT31;52267;51.984;20.956;2024-01-06T06:46:47;-1.83;87.52
65598;SHT31;52267;51.984;20.956;2024-01-06T06:49:14;-1.82;87.55
65598;SHT31;52267;51.984;20.956;2024-01-06T06:51:41;-1.83;87.68
65598;SHT31;52267;51.984;20.956;2024-01-06T06:54:13;-1.82;87.64
65598;SHT31;52267;51.984;20.956;2024-01-06T06:56:42;-1.77;87.59
65598;SHT31;52267;51.984;20.956;2024-01-06T06:59:09;-1.72;87.50
65598;SHT31;52267;51.984;20.956;2024-01-06T07:01:37;-1.68;87.40
65598;SHT31;52267;51.984;20.956;2024-01-06T07:04:04;-1.62;87.32
65598;SHT31;52267;51.984;20.956;2024-01-06T07:06:31;-1.59;87.24
65598;SHT31;52267;51.984;20.956;2024-01-06T07:08:58;-1.60;87.24
65598;SHT31;52267;51.984;20.956;2024-01-06T07:11:26;-1.54;87.27
65598;SHT31;52267;51.984;20.956;2024-01-06T07:13:53;-1.49;87.20
65598;SHT31;52267;51.984;20.956;2024-01-06T07:16:20;-1.46;87.14
65598;SHT31;52267;51.984;20.956;2024-01-06T07:18:48;-1.44;87.12
65598;SHT31;52267;51.984;20.956;2024-01-06T07:21:15;-1.40;87.10
65598;SHT31;52267;51.984;20.956;2024-01-06T07:23:41;-1.41;87.10
65598;SHT31;52267;51.984;20.956;2024-01-06T07:26:09;-1.38;87.10
65598;SHT31;52267;51.984;20.956;2024-01-06T07:28:36;-1.40;87.09
65598;SHT31;52267;51.984;20.956;2024-01-06T07:31:03;-1.37;87.15
65598;SHT31;52267;51.984;20.956;2024-01-06T07:33:31;-1.34;87.10
65598;SHT31;52267;51.984;20.956;2024-01-06T07:35:57;-1.28;87.10
65598;SHT31;52267;51.984;20.956;2024-01-06T07:38:24;-1.23;87.10
65598;SHT31;52267;51.984;20.956;2024-01-06T07:40:51;-1.20;87.07
65598;SHT31;52267;51.984;20.956;2024-01-06T07:43:21;-1.15;87.00
65598;SHT31;52267;51.984;20.956;2024-01-06T07:45:48;-1.13;86.94
65598;SHT31;52267;51.984;20.956;2024-01-06T07:48:15;-1.13;86.92
65598;SHT31;52267;51.984;20.956;2024-01-06T07:50:43;-1.09;86.90
65598;SHT31;52267;51.984;20.956;2024-01-06T07:53:09;-1.06;86.90
65598;SHT31;52267;51.984;20.956;2024-01-06T07:55:36;-1.02;86.86
65598;SHT31;52267;51.984;20.956;2024-01-06T07:58:04;-1.01;86.79
65598;SHT31;52267;51.984;20.956;2024-01-06T08:00:31;-0.97;86.73
65598;SHT31;52267;51.984;20.956;2024-01-06T08:02:58;-0.96;86.64
65598;SHT31;52267;51.984;20.956;2024-01-06T08:05:26;-0.93;86.60
65598;SHT31;52267;51.984;20.956;2024-01-06T08:07:53;-0.92;86.60
65598;SHT31;52267;51.984;20.956;2024-01-06T08:10:20;-0.92;86.57
65598;SHT31;52267;51.984;20.956;2024-01-06T08:12:47;-0.90;86.53
65598;SHT31;52267;51.984;20.956;2024-01-06T08:15:14;-0.87;86.50
65598;SHT31;52267;51.984;20.956;2024-01-06T08:17:42;-0.83;86.43
65598;SHT31;52267;51.984;20.956;2024-01-06T08:20:09;-0.81;86.39
65598;SHT31;52267;51.984;20.956;2024-01-06T08:22:37;-0.77;86.32
65598;SHT31;52267;51.984;20.956;2024-01-06T08:25:04;-0.73;86.29
65598;SHT31;52267;51.984;20.956;2024-01-06T08:27:35;-0.70;86.21
65598;SHT31;52267;51.984;20.956;2024-01-06T08:30:02;-0.68;86.15
65598;SHT31;52267;51.984;20.956;2024-01-06T08:32:29;-0.67;86.11
65598;SHT31;52267;51.984;20.956;2024-01-06T08:34:56;-0.66;86.09
65598;SHT31;52267;51.984;20.956;2024-01-06T08:37:23;-0.65;86.08
65598;SHT31;52267;51.984;20.956;2024-01-06T08:39:51;-0.65;86.02
65598;SHT31;52267;51.984;20.956;2024-01-06T08:42:18;-0.62;86.00
65598;SHT31;52267;51.984;20.956;2024-01-06T08:44:45;-0.67;85.97
65598;SHT31;52267;51.984;20.956;2024-01-06T08:47:12;-0.70;85.99
65598;SHT31;52267;51.984;20.956;2024-01-06T08:49:39;-0.67;86.00
65598;SHT31;52267;51.984;20.956;2024-01-06T08:52:06;-0.66;85.95
65598;SHT31;52267;51.984;20.956;2024-01-06T08:54:33;-0.64;85.95
65598;SHT31;52267;51.984;20.956;2024-01-06T08:57:01;-0.60;85.92
65598;SHT31;52267;51.984;20.956;2024-01-06T08:59:28;-0.62;85.87
65598;SHT31;52267;51.984;20.956;2024-01-06T09:01:55;-0.71;85.87
65598;SHT31;52267;51.984;20.956;2024-01-06T09:04:23;-0.73;85.96
65598;SHT31;52267;51.984;20.956;2024-01-06T09:06:50;-0.66;85.96
65598;SHT31;52267;51.984;20.956;2024-01-06T09:09:17;-0.66;85.92
65598;SHT31;52267;51.984;20.956;2024-01-06T09:11:44;-0.63;85.90
65598;SHT31;52267;51.984;20.956;2024-01-06T09:14:12;-0.68;85.77
65598;SHT31;52267;51.984;20.956;2024-01-06T09:16:39;-0.72;85.79
65598;SHT31;52267;51.984;20.956;2024-01-06T09:19:07;-0.67;85.82
65598;SHT31;52267;51.984;20.956;2024-01-06T09:21:34;-0.62;85.80
65598;SHT31;52267;51.984;20.956;2024-01-06T09:24:02;-0.58;85.79
65598;SHT31;52267;51.984;20.956;2024-01-06T09:26:32;-0.54;85.73
65598;SHT31;52267;51.984;20.956;2024-01-06T09:29:00;-0.49;85.71
65598;SHT31;52267;51.984;20.956;2024-01-06T09:31:29;-0.44;85.67
65598;SHT31;52267;51.984;20.956;2024-01-06T09:33:59;-0.39;85.63
65598;SHT31;52267;51.984;20.956;2024-01-06T09:36:31;-0.36;85.56
65598;SHT31;52267;51.984;20.956;2024-01-06T09:38:58;-0.33;85.55
65598;SHT31;52267;51.984;20.956;2024-01-06T09:41:25;-0.29;85.51
65598;SHT31;52267;51.984;20.956;2024-01-06T09:43:52;-0.27;85.50
65598;SHT31;52267;51.984;20.956;2024-01-06T09:46:26;-0.23;85.50
65598;SHT31;52267;51.984;20.956;2024-01-06T09:48:57;-0.20;85.45
65598;SHT31;52267;51.984;20.956;2024-01-06T09:51:25;-0.20;85.41
65598;SHT31;52267;51.984;20.956;2024-01-06T09:54:03;-0.23;85.35
65598;SHT31;52267;51.984;20.956;2024-01-06T09:56:35;-0.23;85.38
65598;SHT31;52267;51.984;20.956;2024-01-06T09:59:02;-0.22;85.33
65598;SHT31;52267;51.984;20.956;2024-01-06T10:01:30;-0.26;85.25
65598;SHT31;52267;51.984;20.956;2024-01-06T10:03:57;-0.29;85.24
65598;SHT31;52267;51.984;20.956;2024-01-06T10:06:24;-0.23;85.29
65598;SHT31;52267;51.984;20.956;2024-01-06T10:08:52;-0.19;85.23
65598;SHT31;52267;51.984;20.956;2024-01-06T10:11:20;-0.21;85.14
65598;SHT31;52267;51.984;20.956;2024-01-06T10:13:49;-0.25;85.12
65598;SHT31;52267;51.984;20.956;2024-01-06T10:16:21;-0.24;85.08
65598;SHT31;52267;51.984;20.956;2024-01-06T10:18:49;-0.31;85.00
65598;SHT31;52267;51.984;20.956;2024-01-06T10:21:16;-0.29;85.10
65598;SHT31;52267;51.984;20.956;2024-01-06T10:23:44;-0.33;85.08
65598;SHT31;52267;51.984;20.956;2024-01-06T10:26:12;-0.34;85.17
65598;SHT31;52267;51.984;20.956;2024-01-06T10:28:40;-0.29;85.19
65598;SHT31;52267;51.984;20.956;2024-01-06T10:31:07;-0.26;85.13
65598;SHT31;52267;51.984;20.956;2024-01-06T10:33:35;-0.28;85.10
65598;SHT31;52267;51.984;20.956;2024-01-06T10:36:03;-0.29;85.11
65598;SHT31;52267;51.984;20.956;2024-01-06T10:38:32;-0.35;84.95
65598;SHT31;52267;51.984;20.956;2024-01-06T10:41:01;-0.38;84.94
65598;SHT31;52267;51.984;20.956;2024-01-06T10:43:36;-0.38;84.98
65598;SHT31;52267;51.984;20.956;2024-01-06T10:46:08;-0.34;85.00
65598;SHT31;52267;51.984;20.956;2024-01-06T10:48:38;-0.33;84.92
65598;SHT31;52267;51.984;20.956;2024-01-06T10:51:09;-0.30;84.93
65598;SHT31;52267;51.984;20.956;2024-01-06T10:53:37;-0.34;84.86
65598;SHT31;52267;51.984;20.956;2024-01-06T10:56:06;-0.36;84.93
65598;SHT31;52267;51.984;20.956;2024-01-06T10:58:47;-0.38;84.89
65598;SHT31;52267;51.984;20.956;2024-01-06T11:01:19;-0.38;84.90
65598;SHT31;52267;51.984;20.956;2024-01-06T11:03:54;-0.37;84.92
65598;SHT31;52267;51.984;20.956;2024-01-06T11:06:22;-0.33;84.92
65598;SHT31;52267;51.984;20.956;2024-01-06T11:08:54;-0.31;84.90
65598;SHT31;52267;51.984;20.956;2024-01-06T11:11:31;-0.30;84.88
65598;SHT31;52267;51.984;20.956;2024-01-06T11:16:52;-0.32;84.84
65598;SHT31;52267;51.984;20.956;2024-01-06T11:22:34;-0.44;84.62
65598;SHT31;52267;51.984;20.956;2024-01-06T11:25:12;-0.48;84.70
65598;SHT31;52267;51.984;20.956;2024-01-06T11:27:42;-0.44;84.72
65598;SHT31;52267;51.984;20.956;2024-01-06T11:30:20;-0.43;84.75
65598;SHT31;52267;51.984;20.956;2024-01-06T11:32:56;-0.35;84.71
65598;SHT31;52267;51.984;20.956;2024-01-06T11:35:25;-0.30;84.69
65598;SHT31;52267;51.984;20.956;2024-01-06T11:37:57;-0.33;84.53
65598;SHT31;52267;51.984;20.956;2024-01-06T11:40:31;-0.29;84.62
65598;SHT31;52267;51.984;20.956;2024-01-06T11:43:06;-0.24;84.70
65598;SHT31;52267;51.984;20.956;2024-01-06T11:45:36;-0.22;84.70
65598;SHT31;52267;51.984;20.956;2024-01-06T11:48:11;-0.20;84.68
65598;SHT31;52267;51.984;20.956;2024-01-06T11:50:39;-0.25;84.55
65598;SHT31;52267;51.984;20.956;2024-01-06T11:53:07;-0.27;84.58
65598;SHT31;52267;51.984;20.956;2024-01-06T11:55:38;-0.27;84.60
65598;SHT31;52267;51.984;20.956;2024-01-06T11:58:06;-0.26;84.59
65598;SHT31;52267;51.984;20.956;2024-01-06T12:00:33;-0.31;84.60
65598;SHT31;52267;51.984;20.956;2024-01-06T12:03:05;-0.32;84.59
65598;SHT31;52267;51.984;20.956;2024-01-06T12:05:33;-0.32;84.64
65598;SHT31;52267;51.984;20.956;2024-01-06T12:08:00;-0.31;84.63
65598;SHT31;52267;51.984;20.956;2024-01-06T12:10:33;-0.31;84.61
65598;SHT31;52267;51.984;20.956;2024-01-06T12:13:04;-0.30;84.60
65598;SHT31;52267;51.984;20.956;2024-01-06T12:15:36;-0.33;84.57
65598;SHT31;52267;51.984;20.956;2024-01-06T12:18:06;-0.29;84.60
65598;SHT31;52267;51.984;20.956;2024-01-06T12:20:34;-0.28;84.58
65598;SHT31;52267;51.984;20.956;2024-01-06T12:23:01;-0.34;84.33
65598;SHT31;52267;51.984;20.956;2024-01-06T12:25:32;-0.41;84.42
65598;SHT31;52267;51.984;20.956;2024-01-06T12:28:02;-0.42;84.49
65598;SHT31;52267;51.984;20.956;2024-01-06T12:30:29;-0.41;84.52
65598;SHT31;52267;51.984;20.956;2024-01-06T12:32:57;-0.40;84.48
65598;SHT31;52267;51.984;20.956;2024-01-06T12:35:27;-0.40;84.50
65598;SHT31;52267;51.984;20.956;2024-01-06T12:37:55;-0.37;84.47
65598;SHT31;52267;51.984;20.956;2024-01-06T12:40:22;-0.42;84.33
65598;SHT31;52267;51.984;20.956;2024-01-06T12:42:49;-0.55;84.41
65598;SHT31;52267;51.984;20.956;2024-01-06T12:45:16;-0.63;84.53
65598;SHT31;52267;51.984;20.956;2024-01-06T12:47:43;-0.63;84.60
65598;SHT31;52267;51.984;20.956;2024-01-06T12:50:10;-0.59;84.64
65598;SHT31;52267;51.984;20.956;2024-01-06T12:52:37;-0.59;84.61
65598;SHT31;52267;51.984;20.956;2024-01-06T12:55:06;-0.57;84.60
65598;SHT31;52267;51.984;20.956;2024-01-06T12:57:34;-0.54;84.62
65598;SHT31;52267;51.984;20.956;2024-01-06T13:00:01;-0.54;84.60
65598;SHT31;52267;51.984;20.956;2024-01-06T13:02:30;-0.54;84.60
65598;SHT31;52267;51.984;20.956;2024-01-06T13:04:57;-0.55;84.62
65598;SHT31;52267;51.984;20.956;2024-01-06T13:07:24;-0.56;84.69
65598;SHT31;52267;51.984;20.956;2024-01-06T13:09:52;-0.57;84.70
65598;SHT31;52267;51.984;20.956;2024-01-06T13:12:19;-0.56;84.70
65598;SHT31;52267;51.984;20.956;2024-01-06T13:14:46;-0.57;84.66
65598;SHT31;52267;51.984;20.956;2024-01-06T13:17:17;-0.60;84.60
65598;SHT31;52267;51.984;20.956;2024-01-06T13:19:44;-0.64;84.60
65598;SHT31;52267;51.984;20.956;2024-01-06T13:22:11;-0.68;84.60
65598;SHT31;52267;51.984;20.956;2024-01-06T13:24:40;-0.70;84.61
65598;SHT31;52267;51.984;20.956;2024-01-06T13:27:07;-0.72;84.60
65598;SHT31;52267;51.984;20.956;2024-01-06T13:29:34;-0.74;84.60
65598;SHT31;52267;51.984;20.956;2024-01-06T13:32:01;-0.78;84.59
65598;SHT31;52267;51.984;20.956;2024-01-06T13:34:28;-0.81;84.61
65598;SHT31;52267;51.984;20.956;2024-01-06T13:36:56;-0.83;84.59
65598;SHT31;52267;51.984;20.956;2024-01-06T13:39:23;-0.86;84.60
65598;SHT31;52267;51.984;20.956;2024-01-06T13:41:51;-0.85;84.60
65598;SHT31;52267;51.984;20.956;2024-01-06T13:44:18;-0.89;84.61
65598;SHT31;52267;51.984;20.956;2024-01-06T13:46:45;-0.93;84.61
65598;SHT31;52267;51.984;20.956;2024-01-06T13:49:13;-0.99;84.58
65598;SHT31;52267;51.984;20.956;2024-01-06T13:51:41;-1.08;84.60
65598;SHT31;52267;51.984;20.956;2024-01-06T13:54:08;-1.10;84.69
65598;SHT31;52267;51.984;20.956;2024-01-06T13:56:36;-1.09;84.67
65598;SHT31;52267;51.984;20.956;2024-01-06T13:59:03;-1.08;84.62
65598;SHT31;52267;51.984;20.956;2024-01-06T14:01:30;-1.16;84.66
65598;SHT31;52267;51.984;20.956;2024-01-06T14:03:58;-1.18;84.70
65598;SHT31;52267;51.984;20.956;2024-01-06T14:06:28;-1.21;84.68
65598;SHT31;52267;51.984;20.956;2024-01-06T14:08:58;-1.24;84.62
65598;SHT31;52267;51.984;20.956;2024-01-06T14:11:26;-1.27;84.52
65598;SHT31;52267;51.984;20.956;2024-01-06T14:13:54;-1.30;84.51
65598;SHT31;52267;51.984;20.956;2024-01-06T14:16:21;-1.32;84.50
65598;SHT31;52267;51.984;20.956;2024-01-06T14:18:48;-1.34;84.49
65598;SHT31;52267;51.984;20.956;2024-01-06T14:21:15;-1.40;84.30
65598;SHT31;52267;51.984;20.956;2024-01-06T14:23:45;-1.38;84.33
65598;SHT31;52267;51.984;20.956;2024-01-06T14:26:14;-1.37;84.27
65598;SHT31;52267;51.984;20.956;2024-01-06T14:28:46;-1.37;84.19
65598;SHT31;52267;51.984;20.956;2024-01-06T14:31:14;-1.38;84.05
65598;SHT31;52267;51.984;20.956;2024-01-06T14:33:41;-1.39;84.04
65598;SHT31;52267;51.984;20.956;2024-01-06T14:36:08;-1.39;84.02
65598;SHT31;52267;51.984;20.956;2024-01-06T14:38:36;-1.38;84.00
65598;SHT31;52267;51.984;20.956;2024-01-06T14:41:03;-1.38;83.97
65598;SHT31;52267;51.984;20.956;2024-01-06T14:43:30;-1.38;84.00
65598;SHT31;52267;51.984;20.956;2024-01-06T14:45:57;-1.39;83.87
65598;SHT31;52267;51.984;20.956;2024-01-06T14:48:24;-1.38;83.90
65598;SHT31;52267;51.984;20.956;2024-01-06T14:50:51;-1.35;83.88
65598;SHT31;52267;51.984;20.956;2024-01-06T14:53:18;-1.35;83.88
65598;SHT31;52267;51.984;20.956;2024-01-06T14:55:45;-1.32;83.85
65598;SHT31;52267;51.984;20.956;2024-01-06T14:58:12;-1.31;83.85
65598;SHT31;52267;51.984;20.956;2024-01-06T15:00:39;-1.31;83.81
65598;SHT31;52267;51.984;20.956;2024-01-06T15:03:07;-1.34;83.71
65598;SHT31;52267;51.984;20.956;2024-01-06T15:05:34;-1.37;83.65
65598;SHT31;52267;51.984;20.956;2024-01-06T15:08:01;-1.39;83.68
65598;SHT31;52267;51.984;20.956;2024-01-06T15:10:28;-1.37;83.71
65598;SHT31;52267;51.984;20.956;2024-01-06T15:12:55;-1.34;83.76
65598;SHT31;52267;51.984;20.956;2024-01-06T15:15:22;-1.32;83.71
65598;SHT31;52267;51.984;20.956;2024-01-06T15:17:49;-1.30;83.66
65598;SHT31;52267;51.984;20.956;2024-01-06T15:20:16;-1.28;83.62
65598;SHT31;52267;51.984;20.956;2024-01-06T15:22:44;-1.26;83.60
65598;SHT31;52267;51.984;20.956;2024-01-06T15:25:11;-1.26;83.53
65598;SHT31;52267;51.984;20.956;2024-01-06T15:27:38;-1.30;83.28
65598;SHT31;52267;51.984;20.956;2024-01-06T15:30:05;-1.29;83.34